Time;durP1;ratioP1;P1;durP2;ratioP2;P2;SDS_P1;SDS_P2;PMS_P1;PMS_P2;Temp;Humidity;BMP_temperature;BMP_pressure;BME280_temperature;BME280_humidity;BME280_pressure;Samples;Min_cycle;Max_cycle;Signal;HPM_P1;HPM_P2
2021/03/24 00:01:57;;;;;;;9.65;5.50;;;;;;;-1.20;83.54;100980.78;1749662;82;22072;-78
2021/03/24 00:04:26;;;;;;;8.03;5.20;;;;;;;-1.23;83.53;100977.00;1749648;82;21683;-82
2021/03/24 00:07:07;;;;;;;10.90;5.45;;;;;;;-1.25;83.33;100972.37;1749114;82;21064;-85
2021/03/24 00:09:37;;;;;;;8.80;5.30;;;;;;;-1.30;83.17;100974.55;1749306;82;21544;-83
2021/03/24 00:12:07;;;;;;;12.80;5.90;;;;;;;-1.34;83.08;100976.73;1749681;82;21251;-80
2021/03/24 00:14:37;;;;;;;7.20;4.67;;;;;;;-1.36;82.99;100977.17;1749116;82;21058;-80
2021/03/24 00:17:07;;;;;;;6.92;4.90;;;;;;;-1.37;83.04;100976.78;1750399;82;21117;-80
2021/03/24 00:19:35;;;;;;;10.23;5.10;;;;;;;-1.40;82.91;100978.06;1749628;82;21184;-80
2021/03/24 00:22:05;;;;;;;8.25;5.20;;;;;;;-1.40;82.44;100979.33;1749587;82;21637;-79
2021/03/24 00:24:34;;;;;;;9.00;5.72;;;;;;;-1.40;82.27;100978.91;1750619;82;21006;-79
2021/03/24 00:27:05;;;;;;;7.90;5.15;;;;;;;-1.42;82.17;100975.97;1750511;82;22295;-79
2021/03/24 00:29:33;;;;;;;8.10;4.85;;;;;;;-1.44;82.05;100982.37;1750592;82;21105;-81
2021/03/24 00:32:10;;;;;;;9.75;5.03;;;;;;;-1.47;81.94;100979.86;1750835;82;21132;-80
2021/03/24 00:34:39;;;;;;;7.35;4.97;;;;;;;-1.50;81.74;100978.59;1750693;82;20975;-83
2021/03/24 00:37:10;;;;;;;9.35;5.03;;;;;;;-1.51;81.59;100983.30;1750619;82;21153;-77
2021/03/24 00:39:38;;;;;;;9.33;4.90;;;;;;;-1.52;81.24;100985.84;1750396;82;21379;-79
2021/03/24 00:42:07;;;;;;;9.43;4.83;;;;;;;-1.52;80.93;100985.42;1749614;82;21133;-83
2021/03/24 00:44:35;;;;;;;8.95;5.05;;;;;;;-1.53;80.69;100981.18;1749495;82;21204;-78
2021/03/24 00:47:05;;;;;;;7.95;4.40;;;;;;;-1.57;80.50;100984.64;1749878;82;21002;-83
2021/03/24 00:49:34;;;;;;;7.30;4.72;;;;;;;-1.61;80.64;100981.29;1721987;82;21596;-82
2021/03/24 00:54:57;;;;;;;8.60;4.42;;;;;;;-1.60;80.16;100988.04;1961677;72;22686;-81
2021/03/24 00:57:25;;;;;;;6.92;4.62;;;;;;;-1.63;79.82;100994.44;1930405;73;21005;-79
2021/03/24 00:59:53;;;;;;;7.55;4.75;;;;;;;-1.66;79.94;100998.29;1831931;76;21196;-80
2021/03/24 01:02:21;;;;;;;9.93;4.75;;;;;;;-1.71;80.10;101000.48;1842327;76;21088;-83
2021/03/24 01:04:49;;;;;;;11.30;4.75;;;;;;;-1.76;80.39;101001.81;1890609;75;20913;-80
2021/03/24 01:07:17;;;;;;;12.40;4.87;;;;;;;-1.83;80.50;101002.73;1859728;77;20958;-78
2021/03/24 01:09:46;;;;;;;8.60;4.50;;;;;;;-1.90;80.88;101002.38;1895125;75;20906;-78
2021/03/24 01:12:15;;;;;;;7.95;4.50;;;;;;;-1.92;81.00;101012.16;1853617;76;21473;-80
2021/03/24 01:14:44;;;;;;;7.58;4.40;;;;;;;-1.98;81.00;101009.25;1894927;75;21519;-82
2021/03/24 01:17:12;;;;;;;7.85;4.37;;;;;;;-2.03;81.23;101005.88;1860138;77;21521;-81
2021/03/24 01:19:43;;;;;;;7.83;4.80;;;;;;;-2.05;81.30;101002.95;1894903;75;20985;-83
2021/03/24 01:22:11;;;;;;;7.33;4.28;;;;;;;-2.07;81.45;101017.39;1820342;78;20925;-80
2021/03/24 01:24:39;;;;;;;7.90;4.53;;;;;;;-2.09;81.65;101007.64;1889340;75;21439;-82
2021/03/24 01:27:08;;;;;;;8.08;4.60;;;;;;;-2.11;81.62;101005.55;1838511;76;21612;-82
2021/03/24 01:29:38;;;;;;;8.85;4.65;;;;;;;-2.14;81.69;101011.05;1851241;76;21237;-81
2021/03/24 01:32:07;;;;;;;8.40;4.45;;;;;;;-2.17;81.78;101007.73;1847651;76;20980;-80
2021/03/24 01:34:36;;;;;;;8.88;4.62;;;;;;;-2.20;81.89;101009.84;1847176;76;20885;-79
2021/03/24 01:37:04;;;;;;;7.97;4.42;;;;;;;-2.23;81.86;101010.29;1878099;75;21194;-81
2021/03/24 01:39:34;;;;;;;7.30;4.25;;;;;;;-2.27;81.97;101011.20;1830818;76;20973;-78
2021/03/24 01:42:03;;;;;;;8.28;5.22;;;;;;;-2.29;82.12;101012.47;1883780;75;21048;-79
2021/03/24 01:44:31;;;;;;;10.63;5.10;;;;;;;-2.29;81.98;101008.66;1864359;76;21019;-82
2021/03/24 01:46:59;;;;;;;9.03;5.10;;;;;;;-2.30;81.87;101003.14;1849080;76;21594;-81
2021/03/24 01:49:34;;;;;;;7.35;4.28;;;;;;;-2.31;81.80;101004.45;1861021;77;21279;-82
2021/03/24 01:52:08;;;;;;;8.63;4.92;;;;;;;-2.34;81.76;101005.74;1857357;75;21041;-81
2021/03/24 01:54:41;;;;;;;8.45;4.08;;;;;;;-2.37;82.11;101010.42;1847673;76;21831;-81
2021/03/24 01:57:16;;;;;;;14.60;5.62;;;;;;;-2.38;82.27;101004.07;1876295;75;20994;-82
2021/03/24 01:59:45;;;;;;;6.15;3.98;;;;;;;-2.40;82.36;101006.64;1847496;76;21178;-84
2021/03/24 02:02:17;;;;;;;9.05;4.30;;;;;;;-2.42;82.55;101007.48;1865569;76;21245;-81
2021/03/24 02:04:49;;;;;;;9.08;4.30;;;;;;;-2.43;82.48;101018.10;1872072;75;21166;-82
2021/03/24 02:07:29;;;;;;;7.30;4.53;;;;;;;-2.44;82.57;101022.75;1895091;75;20866;-79
2021/03/24 02:10:26;;;;;;;8.88;4.78;;;;;;;-2.44;82.61;101026.99;1859823;76;20923;-85
2021/03/24 02:13:12;;;;;;;7.10;4.65;;;;;;;-2.46;82.63;101023.20;1824844;76;21024;-83
2021/03/24 02:15:54;;;;;;;8.45;4.12;;;;;;;-2.47;82.72;101026.59;1899237;75;21366;-83
2021/03/24 02:18:24;;;;;;;7.33;3.98;;;;;;;-2.48;82.72;101028.70;1860503;77;20976;-81
2021/03/24 02:21:08;;;;;;;6.28;3.83;;;;;;;-2.50;82.70;101035.93;1895773;75;21555;-81
2021/03/24 02:24:01;;;;;;;8.15;3.90;;;;;;;-2.53;82.79;101029.60;1840044;76;21054;-82
2021/03/24 02:26:47;;;;;;;6.45;4.25;;;;;;;-2.55;82.85;101032.14;1895204;75;21175;-82
2021/03/24 02:29:21;;;;;;;7.58;4.22;;;;;;;-2.59;82.85;101033.45;1831935;76;21200;-83
2021/03/24 02:31:49;;;;;;;10.82;4.60;;;;;;;-2.62;83.07;101039.41;1888788;75;21478;-84
2021/03/24 02:34:22;;;;;;;8.88;4.30;;;;;;;-2.62;83.24;101043.22;1860652;76;20925;-82
2021/03/24 02:36:53;;;;;;;7.05;4.03;;;;;;;-2.63;83.18;101033.05;1893508;75;20930;-79
2021/03/24 02:39:25;;;;;;;6.80;3.75;;;;;;;-2.67;83.33;101041.96;1859522;75;20958;-84
2021/03/24 02:41:55;;;;;;;6.20;3.43;;;;;;;-2.68;83.28;101041.98;1890339;75;22096;-81
2021/03/24 02:44:25;;;;;;;7.83;4.55;;;;;;;-2.72;83.55;101038.62;1837929;76;20980;-84
2021/03/24 02:46:54;;;;;;;9.23;3.62;;;;;;;-2.71;83.70;101039.44;1865878;76;20969;-83
2021/03/24 02:49:25;;;;;;;5.55;3.80;;;;;;;-2.73;83.56;101035.66;1851907;76;20928;-84
2021/03/24 02:51:53;;;;;;;6.55;3.80;;;;;;;-2.74;83.53;101044.11;1885699;75;21424;-85
2021/03/24 02:54:24;;;;;;;6.55;3.50;;;;;;;-2.74;83.47;101042.84;1860223;75;21368;-84
2021/03/24 02:56:52;;;;;;;6.80;3.55;;;;;;;-2.73;83.54;101046.23;1895168;75;21127;-84
2021/03/24 02:59:20;;;;;;;5.50;3.20;;;;;;;-2.75;83.50;101043.72;1850296;75;21225;-83
2021/03/24 03:02:05;;;;;;;7.20;3.25;;;;;;;-2.76;83.47;101044.56;1891846;75;21148;-86
2021/03/24 03:04:49;;;;;;;8.75;3.58;;;;;;;-2.78;83.63;101046.70;1842179;76;21106;-84
2021/03/24 03:07:34;;;;;;;4.35;2.98;;;;;;;-2.80;83.83;101048.38;1894488;75;21348;-82
2021/03/24 03:10:16;;;;;;;6.50;3.45;;;;;;;-2.80;83.96;101058.55;1830948;76;21563;-86
2021/03/24 03:13:08;;;;;;;5.80;3.10;;;;;;;-2.80;83.99;101056.00;1861470;77;21591;-84
2021/03/24 03:15:48;;;;;;;7.15;2.77;;;;;;;-2.78;84.00;101058.13;1893383;75;21080;-84
2021/03/24 03:18:25;;;;;;;5.42;2.80;;;;;;;-2.79;83.89;101057.28;1860154;77;21580;-82
2021/03/24 03:20:58;;;;;;;2.83;2.35;;;;;;;-2.80;83.93;101058.55;1892078;75;22261;-82
2021/03/24 03:23:28;;;;;;;4.72;2.87;;;;;;;-2.80;83.97;101061.93;1844697;76;20921;-82
2021/03/24 03:26:01;;;;;;;4.83;2.75;;;;;;;-2.79;83.97;101058.55;1884945;76;21125;-82
2021/03/24 03:28:29;;;;;;;6.58;3.15;;;;;;;-2.80;83.99;101060.66;1814533;77;21006;-84
2021/03/24 03:30:58;;;;;;;4.45;2.65;;;;;;;-2.79;84.09;101064.05;1839088;76;21146;-82
2021/03/24 03:33:32;;;;;;;8.63;2.67;;;;;;;-2.78;84.22;101060.67;1861414;76;21199;-86
2021/03/24 03:36:02;;;;;;;6.60;3.00;;;;;;;-2.78;84.18;101056.44;1890024;75;21134;-83
2021/03/24 03:38:30;;;;;;;6.95;2.98;;;;;;;-2.79;84.24;101067.44;1835861;75;21264;-82
2021/03/24 03:40:59;;;;;;;4.85;2.70;;;;;;;-2.78;84.43;101076.75;1895566;74;21037;-85
2021/03/24 03:43:28;;;;;;;5.65;2.72;;;;;;;-2.76;84.45;101075.46;1860972;77;20990;-81
2021/03/24 03:45:58;;;;;;;4.08;2.60;;;;;;;-2.74;84.40;101072.05;1888939;75;22058;-84
2021/03/24 03:48:28;;;;;;;;;;;;;;;-2.73;84.29;101069.94;1836723;76;21482;-83
2021/03/24 03:50:59;;;;;;;4.65;2.40;;;;;;;-2.71;84.25;101072.45;1861570;77;20241;-84
2021/03/24 03:53:59;;;;;;;4.78;2.90;;;;;;;-2.71;84.20;101077.53;1857183;76;21148;-84
2021/03/24 03:56:32;;;;;;;10.65;3.25;;;;;;;-2.72;84.28;101070.38;1851298;76;21532;-86
2021/03/24 03:59:08;;;;;;;6.10;3.12;;;;;;;-2.72;84.15;101083.07;1838738;76;21188;-85
2021/03/24 04:01:38;;;;;;;4.22;2.47;;;;;;;-2.72;83.96;101082.22;1861839;74;21013;-86
2021/03/24 04:04:19;;;;;;;3.25;1.67;;;;;;;-2.73;83.95;101086.45;1840746;75;20854;-81
2021/03/24 04:07:05;;;;;;;5.67;2.67;;;;;;;-2.75;83.94;101088.17;1851144;76;20986;-86
2021/03/24 04:09:39;;;;;;;5.58;2.72;;;;;;;-2.75;83.91;101083.09;1847586;76;20922;-80
2021/03/24 04:12:15;;;;;;;5.47;3.05;;;;;;;-2.77;83.92;101081.38;1896226;75;21181;-85
2021/03/24 04:14:44;;;;;;;6.90;3.20;;;;;;;-2.78;83.98;101091.99;1855680;75;21121;-85
2021/03/24 04:17:17;;;;;;;5.80;3.30;;;;;;;-2.78;83.97;101097.08;1884390;75;21020;-85
2021/03/24 04:19:53;;;;;;;5.80;3.20;;;;;;;-2.76;84.02;101094.51;1818520;76;20882;-86
2021/03/24 04:22:26;;;;;;;;;;;;;;;-2.75;83.94;101093.25;1886589;75;21575;-85
2021/03/24 04:24:55;;;;;;;9.60;3.35;;;;;;;-2.75;83.98;101099.59;1853925;75;21198;-83
2021/03/24 04:27:29;;;;;;;7.03;3.45;;;;;;;-2.74;83.99;101105.07;1849948;77;20934;-82
2021/03/24 04:30:07;;;;;;;6.17;3.17;;;;;;;-2.73;83.93;101094.07;1835972;72;21000;-83
2021/03/24 04:32:36;;;;;;;8.60;3.60;;;;;;;-2.70;83.81;101087.70;1880607;75;21036;-81
2021/03/24 04:35:11;;;;;;;7.78;3.90;;;;;;;-2.67;83.74;101091.92;1883992;76;20970;-81
2021/03/24 04:37:50;;;;;;;5.05;3.25;;;;;;;-2.67;83.58;101087.69;1817998;76;21199;-83
2021/03/24 04:40:50;;;;;;;5.58;3.05;;;;;;;-2.64;83.52;101089.78;1891363;74;20882;-80
2021/03/24 04:43:25;;;;;;;5.37;3.25;;;;;;;-2.64;83.55;101096.12;1859785;74;20982;-82
2021/03/24 04:46:06;;;;;;;5.42;3.15;;;;;;;-2.64;83.78;101088.09;1892901;75;20961;-85
2021/03/24 04:48:39;;;;;;;6.22;2.85;;;;;;;-2.62;83.88;101086.41;1830161;73;21103;-79
2021/03/24 04:55:13;;;;;;;7.05;3.52;;;;;;;-2.60;83.72;101096.12;1750703;76;21194;31
2021/03/24 04:58:32;;;;;;;6.85;2.92;;;;;;;-2.56;83.70;101105.84;1798257;75;21187;-80
2021/03/24 05:01:19;;;;;;;6.42;3.00;;;;;;;-2.56;83.83;101109.23;1787422;77;20906;-85
2021/03/24 05:03:49;;;;;;;7.40;2.95;;;;;;;-2.48;83.77;101114.25;1788364;77;21130;-82
2021/03/24 05:06:29;;;;;;;6.45;3.27;;;;;;;-2.44;83.54;101115.93;1798302;78;21231;-83
2021/03/24 05:08:59;;;;;;;5.37;2.80;;;;;;;-2.40;83.35;101111.25;1775422;79;21088;-85
2021/03/24 05:11:44;;;;;;;5.22;3.52;;;;;;;-2.34;83.13;101115.02;1777289;80;20990;-83
2021/03/24 05:14:37;;;;;;;5.10;2.85;;;;;;;-2.27;83.11;101114.14;1791083;78;21187;-81
2021/03/24 05:17:28;;;;;;;5.28;3.02;;;;;;;-2.20;82.89;101124.66;1768632;79;21058;-85
2021/03/24 05:20:13;;;;;;;5.37;3.33;;;;;;;-2.13;83.05;101119.95;1796814;77;21586;-81
2021/03/24 05:22:44;;;;;;;7.00;3.62;;;;;;;-2.08;82.83;101119.94;1796186;77;21590;-83
2021/03/24 05:25:33;;;;;;;10.55;3.58;;;;;;;-2.02;82.83;101124.55;1785848;77;21571;-85
2021/03/24 05:28:31;;;;;;;6.20;3.52;;;;;;;-1.94;82.76;101120.66;1779102;78;21482;-83
2021/03/24 05:31:10;;;;;;;6.08;3.50;;;;;;;-1.84;82.62;101115.92;1789626;77;21132;-84
2021/03/24 05:33:42;;;;;;;11.55;4.78;;;;;;;-1.73;82.16;101121.35;1789639;78;21188;-86
2021/03/24 05:36:23;;;;;;;10.70;4.30;;;;;;;-1.60;82.30;101117.00;1784768;77;21633;-84
2021/03/24 05:38:53;;;;;;;13.50;5.28;;;;;;;-1.45;82.13;101121.94;1782813;77;21125;-85
2021/03/24 05:41:35;;;;;;;12.50;4.45;;;;;;;-1.27;81.99;101120.89;1778499;79;21183;-82
2021/03/24 05:44:29;;;;;;;7.03;3.70;;;;;;;-1.16;81.51;101116.54;1783486;78;21121;-82
2021/03/24 05:47:26;;;;;;;7.10;3.85;;;;;;;-1.09;80.44;101122.84;1782317;78;21177;-83
2021/03/24 05:50:02;;;;;;;6.00;3.90;;;;;;;-1.05;80.46;101116.44;1766914;77;21144;-82
2021/03/24 05:53:03;;;;;;;11.95;4.70;;;;;;;-1.02;80.28;101106.20;1785942;79;21064;-83
2021/03/24 05:55:44;;;;;;;6.72;4.00;;;;;;;-1.00;80.90;101120.61;1774727;77;28352;-81
2021/03/24 05:58:38;;;;;;;8.28;3.92;;;;;;;-0.94;80.90;101113.31;1799261;77;21614;-80
2021/03/24 06:01:23;;;;;;;11.48;4.80;;;;;;;-0.90;80.96;101113.27;1775168;78;21444;-85
2021/03/24 06:04:08;;;;;;;11.60;5.28;;;;;;;-0.84;81.07;101123.81;1794468;78;20926;-84
2021/03/24 06:07:11;;;;;;;8.53;4.42;;;;;;;-0.76;80.75;101127.94;1786694;79;21259;-78
2021/03/24 06:10:05;;;;;;;15.60;6.75;;;;;;;-0.68;80.33;101120.22;1787740;77;21144;-79
2021/03/24 06:13:01;;;;;;;13.30;5.30;;;;;;;-0.59;79.23;101127.73;1782449;77;21183;-82
2021/03/24 06:16:18;;;;;;;8.10;4.58;;;;;;;-0.52;79.54;101130.62;1788881;78;21219;-85
2021/03/24 06:19:12;;;;;;;12.43;5.72;;;;;;;-0.41;79.45;101130.03;1776011;79;21100;-83
2021/03/24 06:22:01;;;;;;;10.65;5.12;;;;;;;-0.29;78.93;101137.96;1773940;80;21124;-80
2021/03/24 06:25:04;;;;;;;15.30;6.25;;;;;;;-0.19;78.35;101143.34;1784488;78;21464;-84
2021/03/24 06:28:03;;;;;;;7.58;4.33;;;;;;;-0.10;77.75;101138.11;1762043;80;21239;-80
2021/03/24 06:30:49;;;;;;;29.65;10.05;;;;;;;0.08;77.18;101145.90;1784166;77;21195;-84
2021/03/24 06:33:36;;;;;;;13.60;5.47;;;;;;;0.35;76.15;101145.02;1788549;77;21127;-81
2021/03/24 06:36:13;;;;;;;20.45;7.30;;;;;;;0.64;74.93;101134.30;1789125;77;21136;-81
2021/03/24 06:39:13;;;;;;;26.52;8.13;;;;;;;0.90;74.13;101144.89;1797525;77;21009;-83
2021/03/24 06:42:07;;;;;;;35.35;9.53;;;;;;;0.94;72.57;101146.95;1768331;79;21176;-79
2021/03/24 06:45:01;;;;;;;13.00;5.95;;;;;;;0.92;72.21;101146.16;1784537;77;21635;-79
2021/03/24 06:47:37;;;;;;;19.23;7.78;;;;;;;0.91;71.91;101155.95;1777198;77;21103;-80
2021/03/24 06:50:50;;;;;;;10.75;4.97;;;;;;;0.98;71.97;101149.88;1788423;77;21231;-84
2021/03/24 06:53:59;;;;;;;12.53;6.40;;;;;;;1.19;71.69;101148.16;1790188;78;21285;-83
2021/03/24 06:57:05;;;;;;;13.05;4.55;;;;;;;1.45;71.51;101145.08;1784953;77;21203;-82
2021/03/24 06:59:51;;;;;;;14.23;4.35;;;;;;;1.66;70.26;101141.23;1774054;80;21183;-80
2021/03/24 07:02:37;;;;;;;6.80;3.65;;;;;;;1.94;68.98;101144.86;1777106;80;21045;-78
2021/03/24 07:05:48;;;;;;;5.35;3.08;;;;;;;2.11;66.95;101138.88;1767777;79;21199;-80
2021/03/24 07:08:53;;;;;;;8.03;3.58;;;;;;;2.18;66.14;101142.14;1799295;78;21184;-79
2021/03/24 07:11:59;;;;;;;4.15;2.90;;;;;;;2.35;66.51;101137.47;1803085;77;21183;-80
2021/03/24 07:14:53;;;;;;;5.87;2.80;;;;;;;2.52;65.07;101143.02;1771372;80;21427;-80
2021/03/24 07:17:55;;;;;;;5.50;3.10;;;;;;;2.53;63.30;101139.12;1797538;77;21156;-83
2021/03/24 07:20:48;;;;;;;9.53;3.83;;;;;;;2.57;61.94;101147.57;1789631;77;21609;-81
2021/03/24 07:23:50;;;;;;;8.25;3.50;;;;;;;2.55;62.98;101154.47;1786484;77;21232;-83
2021/03/24 07:26:49;;;;;;;15.68;4.12;;;;;;;2.50;63.33;101156.28;1801645;77;21190;-83
2021/03/24 07:29:54;;;;;;;4.22;3.20;;;;;;;2.41;62.16;101160.36;1810209;77;22117;-79
2021/03/24 07:32:51;;;;;;;8.55;4.75;;;;;;;2.34;63.18;101162.23;1805767;77;21184;-79
2021/03/24 07:35:38;;;;;;;15.63;4.87;;;;;;;2.22;64.23;101162.96;1773437;79;21159;-82
2021/03/24 07:38:21;;;;;;;7.20;4.12;;;;;;;2.10;65.22;101160.27;1774103;80;21124;-83
2021/03/24 07:41:35;;;;;;;8.33;3.58;;;;;;;2.01;65.58;101160.02;1774163;79;21092;-81
2021/03/24 07:44:42;;;;;;;10.70;4.87;;;;;;;2.14;66.14;101164.41;1773359;80;21328;-81
2021/03/24 07:47:29;;;;;;;9.48;4.10;;;;;;;2.13;61.62;101167.88;1810094;77;21299;-80
2021/03/24 07:50:41;;;;;;;8.30;3.50;;;;;;;2.00;61.81;101169.88;1811571;77;21156;-80
2021/03/24 07:53:46;;;;;;;5.80;3.30;;;;;;;1.99;62.96;101176.29;1771803;79;21037;-80
2021/03/24 07:56:29;;;;;;;7.03;3.45;;;;;;;2.04;63.84;101171.92;1813076;77;21176;-79
2021/03/24 07:59:18;;;;;;;8.70;3.87;;;;;;;2.02;63.54;101171.95;1810932;77;21230;-79
2021/03/24 08:02:30;;;;;;;8.53;3.95;;;;;;;1.98;64.13;101166.48;1812781;77;21490;-82
2021/03/24 08:05:43;;;;;;;5.78;3.17;;;;;;;2.10;63.91;101166.66;1773898;80;21791;-79
2021/03/24 08:08:20;;;;;;;4.70;3.10;;;;;;;2.34;63.52;101171.19;1772875;79;21302;-80
2021/03/24 08:11:05;;;;;;;6.72;3.10;;;;;;;2.44;60.92;101174.37;1774060;79;21104;-80
2021/03/24 08:13:42;;;;;;;7.55;2.70;;;;;;;2.47;61.32;101168.73;1769436;79;21279;-82
2021/03/24 08:16:23;;;;;;;9.03;4.35;;;;;;;2.62;60.85;101169.63;1761835;79;21619;-84
2021/03/24 08:19:25;;;;;;;8.75;4.58;;;;;;;2.68;60.92;101169.47;1759605;79;21248;-82
2021/03/24 08:22:39;;;;;;;5.27;3.60;;;;;;;2.70;60.75;101176.28;1759600;80;21160;-80
2021/03/24 08:25:49;;;;;;;8.55;3.80;;;;;;;2.64;61.47;101175.57;1697351;82;21189;-77
2021/03/24 08:28:47;;;;;;;11.10;4.67;;;;;;;2.72;62.48;101177.08;1953139;72;22271;-80
2021/03/24 08:31:51;;;;;;;11.85;6.25;;;;;;;2.75;62.83;101182.97;1913509;73;21018;-81
2021/03/24 08:35:13;;;;;;;22.37;9.88;;;;;;;2.68;63.87;101187.02;1848338;76;21091;-80
2021/03/24 08:38:18;;;;;;;8.10;4.40;;;;;;;2.54;64.44;101179.67;1852034;76;21615;-83
2021/03/24 08:41:34;;;;;;;5.95;3.55;;;;;;;2.69;65.64;101176.72;1824518;78;21619;-82
2021/03/24 08:44:28;;;;;;;6.10;3.50;;;;;;;3.00;62.52;101179.34;1846314;76;21188;-76
2021/03/24 08:47:00;;;;;;;;;;;;;;;3.26;60.06;101176.89;1760491;81;21728;-79
2021/03/24 08:49:33;;;;;;;6.95;4.00;;;;;;;3.65;58.00;101177.48;1817088;75;20193;-86
2021/03/24 08:52:35;;;;;;;6.45;3.62;;;;;;;3.94;57.89;101174.05;1824094;78;21219;-80
2021/03/24 08:55:35;;;;;;;6.05;4.15;;;;;;;4.06;57.06;101174.94;1852260;77;21017;-77
2021/03/24 08:58:18;;;;;;;11.70;5.83;;;;;;;4.19;55.45;101173.67;1829460;77;21160;-86
2021/03/24 09:01:10;;;;;;;8.30;4.65;;;;;;;4.16;57.00;101172.48;1966627;72;23512;-81
2021/03/24 09:04:03;;;;;;;6.55;4.33;;;;;;;4.07;56.46;101179.20;1832118;77;21000;-83
2021/03/24 09:07:11;;;;;;;5.33;4.08;;;;;;;3.86;57.94;101183.72;1824170;78;21096;-78
2021/03/24 09:10:12;;;;;;;5.78;4.35;;;;;;;3.71;60.78;101188.84;1818555;78;21043;-78
2021/03/24 09:12:47;;;;;;;5.97;3.92;;;;;;;3.49;63.40;101186.07;1829161;77;21179;-80
2021/03/24 09:15:39;;;;;;;6.75;4.65;;;;;;;3.50;64.33;101177.94;1850779;76;21046;-82
2021/03/24 09:18:14;;;;;;;;;;;;;;;3.66;62.80;101185.59;1794134;77;21156;-82
2021/03/24 09:21:16;;;;;;;5.45;4.53;;;;;;;3.52;62.83;101181.28;1822927;78;22285;-78
2021/03/24 09:24:27;;;;;;;6.35;4.67;;;;;;;3.29;62.71;101189.63;1818543;78;21017;-79
2021/03/24 09:27:47;;;;;;;9.58;4.97;;;;;;;3.21;63.95;101183.88;1823980;77;21160;-79
2021/03/24 09:30:48;;;;;;;7.45;4.20;;;;;;;3.29;63.42;101181.12;1841741;76;21688;-84
2021/03/24 09:33:57;;;;;;;5.53;4.50;;;;;;;3.45;63.60;101184.91;1836763;76;21171;-84
2021/03/24 09:36:57;;;;;;;7.28;5.17;;;;;;;3.52;62.99;101185.13;1835994;78;21167;-79
2021/03/24 09:39:36;;;;;;;6.67;5.40;;;;;;;3.70;62.33;101182.87;1835721;78;21184;-78
2021/03/24 09:42:29;;;;;;;8.60;7.03;;;;;;;3.76;62.45;101179.30;1865015;76;21036;-78
2021/03/24 09:45:06;;;;;;;7.92;5.25;;;;;;;3.86;61.94;101183.72;1861431;75;21056;-80
2021/03/24 09:47:54;;;;;;;6.28;4.80;;;;;;;3.86;61.20;101180.69;1860851;76;21073;-81
2021/03/24 09:50:33;;;;;;;5.05;4.45;;;;;;;4.01;61.14;101175.55;1828709;77;21195;-85
2021/03/24 09:53:25;;;;;;;9.38;6.10;;;;;;;4.38;60.02;101168.34;1836918;78;21214;-82
2021/03/24 09:56:08;;;;;;;7.50;5.92;;;;;;;4.37;60.45;101172.27;1837102;76;21127;-78
2021/03/24 09:59:08;;;;;;;6.78;5.50;;;;;;;3.73;62.27;101176.36;1819459;78;21199;-83
2021/03/24 10:01:41;;;;;;;8.43;6.10;;;;;;;3.32;63.89;101178.00;1843845;77;21211;-85
2021/03/24 10:04:40;;;;;;;10.98;7.40;;;;;;;3.26;65.45;101180.73;1889430;76;21242;-79
2021/03/24 10:07:18;;;;;;;11.12;8.20;;;;;;;3.39;65.17;101175.66;1856031;77;21143;-84
2021/03/24 10:10:23;;;;;;;8.03;6.65;;;;;;;3.74;64.72;101181.05;1889082;76;21017;-80
2021/03/24 10:13:26;;;;;;;6.22;5.17;;;;;;;4.55;63.55;101185.35;1855254;77;20982;-81
2021/03/24 10:16:12;;;;;;;11.10;5.90;;;;;;;5.44;57.47;101181.37;1891122;76;21040;-83
2021/03/24 10:19:01;;;;;;;8.80;6.00;;;;;;;5.41;56.36;101184.50;1856976;77;21190;-81
2021/03/24 10:21:34;;;;;;;8.83;5.83;;;;;;;5.17;59.06;101185.76;1889378;76;21155;-79
2021/03/24 10:24:27;;;;;;;9.53;6.72;;;;;;;4.82;60.60;101189.19;1855510;77;21128;-82
2021/03/24 10:27:05;;;;;;;8.38;6.58;;;;;;;4.44;61.95;101186.56;1861564;77;21192;-80
2021/03/24 10:30:09;;;;;;;8.60;6.53;;;;;;;4.28;62.84;101185.41;1859696;76;21615;-81
2021/03/24 10:32:53;;;;;;;12.03;6.03;;;;;;;4.31;62.68;101187.88;1855900;76;21623;-82
2021/03/24 10:35:36;;;;;;;10.40;6.97;;;;;;;4.24;61.95;101182.91;1888760;75;21641;-83
2021/03/24 10:38:23;;;;;;;7.75;5.92;;;;;;;4.18;61.67;101186.95;1886427;75;21052;-81
2021/03/24 10:41:21;;;;;;;8.13;6.20;;;;;;;4.16;61.39;101189.19;1870430;76;21148;-81
2021/03/24 10:44:14;;;;;;;10.03;5.83;;;;;;;4.02;61.61;101190.07;1888896;76;21645;-79
2021/03/24 10:46:53;;;;;;;7.85;6.28;;;;;;;3.94;61.45;101190.30;1888844;76;21722;-80
2021/03/24 10:49:56;;;;;;;9.73;6.42;;;;;;;4.05;62.42;101192.08;1884732;76;21172;-79
2021/03/24 10:52:31;;;;;;;7.78;6.28;;;;;;;4.39;61.01;101184.61;1889024;76;21635;-82
2021/03/24 10:55:03;;;;;;;;;;;;;;;4.54;61.53;101183.66;1891731;75;21167;-80
2021/03/24 10:58:27;;;;;;;7.42;5.75;;;;;;;4.61;61.17;101186.88;1888686;75;20230;-79
2021/03/24 11:01:20;;;;;;;11.80;6.22;;;;;;;4.59;61.41;101180.95;1888862;75;21566;-79
2021/03/24 11:04:11;;;;;;;6.58;5.58;;;;;;;4.65;62.93;101176.45;1858217;75;21167;-79
2021/03/24 11:07:02;;;;;;;8.33;5.67;;;;;;;4.57;63.88;101180.98;1877385;76;21246;-82
2021/03/24 11:09:55;;;;;;;7.03;5.60;;;;;;;4.71;62.27;101176.68;1887996;75;21192;-81
2021/03/24 11:12:49;;;;;;;6.62;5.83;;;;;;;4.80;61.99;101177.66;1888001;76;21169;-81
2021/03/24 11:15:44;;;;;;;8.25;5.30;;;;;;;4.85;62.00;101178.80;1887529;75;21164;-79
2021/03/24 11:18:18;;;;;;;8.85;5.47;;;;;;;5.15;61.29;101173.85;1887544;75;21203;-77
2021/03/24 11:20:57;;;;;;;6.60;5.40;;;;;;;5.02;60.16;101172.59;1888039;76;20986;-83
2021/03/24 11:23:47;;;;;;;7.28;5.08;;;;;;;4.77;60.39;101172.61;1888585;76;21204;-80
2021/03/24 11:26:51;;;;;;;5.62;5.00;;;;;;;4.76;61.07;101167.91;1888325;76;21108;-77
2021/03/24 11:29:23;;;;;;;6.37;5.12;;;;;;;4.95;60.64;101173.70;1888469;76;22097;-83
2021/03/24 11:32:00;;;;;;;;;;;;;;;5.08;58.32;101166.80;1891545;75;21183;-80
2021/03/24 11:34:38;;;;;;;8.45;5.72;;;;;;;5.22;59.37;101170.17;1888411;75;20619;-83
2021/03/24 11:37:31;;;;;;;7.65;5.50;;;;;;;5.35;59.07;101166.27;1887611;76;21175;-82
2021/03/24 11:40:08;;;;;;;6.42;4.87;;;;;;;5.98;58.84;101160.89;1883342;76;21207;-81
2021/03/24 11:42:37;;;;;;;7.67;5.78;;;;;;;6.28;54.80;101157.95;1827343;76;21951;-85
2021/03/24 11:45:11;;;;;;;6.62;5.00;;;;;;;5.93;55.50;101149.94;1802158;78;21167;-85
2021/03/24 11:50:42;;;;;;;8.18;5.87;;;;;;;5.59;56.54;101156.78;1840662;76;21606;-79
2021/03/24 11:53:40;;;;;;;6.85;5.75;;;;;;;5.28;58.72;101155.36;1844421;77;21148;-81
2021/03/24 11:56:34;;;;;;;5.33;4.58;;;;;;;4.98;60.34;101164.15;1853840;75;21174;-84
2021/03/24 11:59:30;;;;;;;5.97;4.95;;;;;;;4.75;61.10;101157.70;1818959;76;21210;-83
2021/03/24 12:02:25;;;;;;;6.17;4.80;;;;;;;4.66;60.04;101159.27;1868659;76;20977;-82
2021/03/24 12:05:13;;;;;;;5.97;5.08;;;;;;;4.66;59.06;101162.68;1836925;77;21294;-84
2021/03/24 12:08:15;;;;;;;6.62;5.03;;;;;;;4.89;58.24;101158.05;1835021;78;21618;-79
2021/03/24 12:11:03;;;;;;;5.97;5.33;;;;;;;4.87;58.28;101155.98;1842425;76;21267;-81
2021/03/24 12:13:35;;;;;;;7.00;5.47;;;;;;;4.73;58.85;101163.32;1854722;76;21214;-81
2021/03/24 12:16:12;;;;;;;7.10;5.03;;;;;;;4.48;58.69;101162.02;1850778;76;21184;-78
2021/03/24 12:18:55;;;;;;;5.55;4.50;;;;;;;4.21;61.12;101168.87;1834713;78;21218;-79
2021/03/24 12:21:35;;;;;;;5.28;3.90;;;;;;;3.85;64.54;101167.47;1834327;78;21226;-81
2021/03/24 12:24:22;;;;;;;4.60;4.12;;;;;;;3.38;66.07;101176.57;1820680;78;21025;-80
2021/03/24 12:26:52;;;;;;;7.50;5.62;;;;;;;3.04;68.54;101180.48;1835809;78;20990;-79
2021/03/24 12:29:25;;;;;;;14.00;8.05;;;;;;;2.71;71.79;101183.10;1861349;76;21163;-77
2021/03/24 12:32:00;;;;;;;11.53;7.42;;;;;;;2.45;74.29;101183.31;1860942;77;21238;-80
2021/03/24 12:34:31;;;;;;;10.28;6.53;;;;;;;2.37;76.23;101186.91;1861907;77;21132;-79
2021/03/24 12:37:06;;;;;;;8.58;7.10;;;;;;;2.43;77.28;101182.92;1848990;76;21301;-79
2021/03/24 12:39:41;;;;;;;8.20;6.95;;;;;;;2.76;78.08;101187.22;1822829;76;21059;-81
2021/03/24 12:46:21;;;;;;;7.22;6.17;;;;;;;5.38;75.17;101171.30;1789154;79;23137;-80
2021/03/24 12:49:03;;;;;;;8.30;6.55;;;;;;;6.44;71.87;101167.64;1750831;80;21050;-80
2021/03/24 12:51:37;;;;;;;9.68;7.92;;;;;;;6.74;68.36;101167.64;1769464;80;21209;-79
2021/03/24 12:54:11;;;;;;;7.30;6.42;;;;;;;6.29;65.80;101175.08;1732352;80;21037;-79
2021/03/24 12:57:23;;;;;;;7.10;5.22;;;;;;;5.48;65.06;101171.36;1731951;82;21075;-79
2021/03/24 13:00:40;;;;;;;6.20;5.40;;;;;;;4.76;67.01;101182.49;1732928;81;21224;-81